Time;durP1;ratioP1;P1;durP2;ratioP2;P2;SDS_P1;SDS_P2;PMS_P1;PMS_P2;Temp;Humidity;BMP_temperature;BMP_pressure;BME280_temperature;BME280_humidity;BME280_pressure;Samples;Min_cycle;Max_cycle;Signal;HPM_P1;HPM_P2
2024/04/09 00:00:49;;;;;;;;;;;13.50;98.80;;;;;;5348739;26;20257;-48
2024/04/09 00:03:16;;;;;;;;;;;13.50;98.80;;;;;;5339926;26;19930;-49
2024/04/09 00:05:43;;;;;;;;;;;13.50;98.70;;;;;;5347914;26;19938;-48
2024/04/09 00:08:12;;;;;;;;;;;13.50;98.90;;;;;;5347814;26;19937;-48
2024/04/09 00:10:38;;;;;;;;;;;13.50;98.90;;;;;;5348914;26;19930;-48
2024/04/09 00:13:06;;;;;;;;;;;13.50;98.90;;;;;;5349597;26;20025;-48
2024/04/09 00:15:33;;;;;;;;;;;13.50;98.90;;;;;;5346708;26;19937;-48
2024/04/09 00:18:14;;;;;;;;;;;13.50;98.80;;;;;;5349409;26;20359;-48
2024/04/09 00:20:40;;;;;;;;;;;13.40;98.70;;;;;;5332012;26;20227;-49
2024/04/09 00:23:06;;;;;;;;;;;13.40;98.60;;;;;;5340289;26;19976;-48
2024/04/09 00:25:31;;;;;;;;;;;13.50;98.70;;;;;;5347851;26;20373;-48
2024/04/09 00:27:59;;;;;;;;;;;13.40;98.60;;;;;;5348367;26;19966;-48
2024/04/09 00:30:25;;;;;;;;;;;13.50;98.60;;;;;;5348217;26;19930;-48
2024/04/09 00:32:51;;;;;;;;;;;13.40;98.60;;;;;;5335112;26;19965;-48
2024/04/09 00:35:17;;;;;;;;;;;13.50;98.80;;;;;;5347079;26;19937;-48
2024/04/09 00:37:42;;;;;;;;;;;13.40;98.30;;;;;;5347627;26;19937;-48
2024/04/09 00:40:13;;;;;;;;;;;13.40;98.60;;;;;;5348489;26;19930;-48
2024/04/09 00:42:39;;;;;;;;;;;13.40;98.60;;;;;;5348265;26;19983;-48
2024/04/09 00:45:04;;;;;;;;;;;13.40;98.50;;;;;;5348538;26;19933;-51
2024/04/09 00:47:36;;;;;;;;;;;13.30;98.30;;;;;;5348395;26;20367;-52
2024/04/09 00:50:05;;;;;;;;;;;13.30;98.20;;;;;;5348683;26;19930;-52
2024/04/09 00:52:33;;;;;;;;;;;13.30;98.50;;;;;;5347903;26;19934;-51
2024/04/09 00:54:59;;;;;;;;;;;13.40;98.50;;;;;;5350283;26;19929;-51
2024/04/09 00:57:25;;;;;;;;;;;13.40;98.40;;;;;;5340905;26;19999;-53
2024/04/09 00:59:52;;;;;;;;;;;13.40;98.60;;;;;;5347983;26;19930;-51
2024/04/09 01:02:19;;;;;;;;;;;13.40;98.50;;;;;;5338330;26;19930;-51
2024/04/09 01:04:44;;;;;;;;;;;13.30;98.30;;;;;;5347990;26;19937;-51
2024/04/09 01:07:10;;;;;;;;;;;13.30;98.30;;;;;;5347476;26;19930;-51
2024/04/09 01:09:42;;;;;;;;;;;13.30;98.30;;;;;;5347220;26;19930;-52
2024/04/09 01:12:07;;;;;;;;;;;13.30;98.40;;;;;;5348793;26;19930;-52
2024/04/09 01:14:33;;;;;;;;;;;13.30;98.30;;;;;;5348291;26;20365;-53
2024/04/09 01:16:58;;;;;;;;;;;13.30;98.60;;;;;;5347567;26;20269;-52
2024/04/09 01:19:24;;;;;;;;;;;13.30;98.60;;;;;;5347912;26;19930;-52
2024/04/09 01:21:52;;;;;;;;;;;13.30;98.70;;;;;;5348216;26;20433;-54
2024/04/09 01:24:18;;;;;;;;;;;13.40;98.90;;;;;;5348606;26;19936;-52
2024/04/09 01:26:45;;;;;;;;;;;13.40;98.90;;;;;;5345700;26;20405;-52
2024/04/09 01:29:11;;;;;;;;;;;13.30;99.00;;;;;;5348860;26;19930;-52
2024/04/09 01:31:38;;;;;;;;;;;13.40;99.10;;;;;;5347749;26;19958;-52
2024/04/09 01:34:04;;;;;;;;;;;13.30;99.00;;;;;;5348336;26;20003;-51
2024/04/09 01:36:31;;;;;;;;;;;13.30;99.10;;;;;;5347524;26;19942;-49
2024/04/09 01:38:57;;;;;;;;;;;13.40;99.30;;;;;;5348600;26;19930;-51
2024/04/09 01:41:23;;;;;;;;;;;13.40;99.20;;;;;;5347315;26;19937;-52
2024/04/09 01:43:48;;;;;;;;;;;13.30;99.20;;;;;;5347939;26;19930;-52
2024/04/09 01:46:14;;;;;;;;;;;13.30;99.00;;;;;;5347906;26;19930;-53
2024/04/09 01:48:40;;;;;;;;;;;13.30;98.80;;;;;;5348050;26;20341;-51
2024/04/09 01:51:09;;;;;;;;;;;13.30;98.90;;;;;;5337738;26;20364;-52
2024/04/09 01:53:35;;;;;;;;;;;13.30;98.90;;;;;;5328917;26;19939;-52
2024/04/09 01:56:00;;;;;;;;;;;13.30;99.00;;;;;;5334009;26;19936;-48
2024/04/09 01:58:27;;;;;;;;;;;13.40;99.00;;;;;;5347047;26;20359;-49
2024/04/09 02:00:52;;;;;;;;;;;13.40;99.10;;;;;;5329759;26;19976;-48
2024/04/09 02:03:18;;;;;;;;;;;13.40;99.10;;;;;;5344859;26;20340;-48
2024/04/09 02:05:45;;;;;;;;;;;13.30;99.10;;;;;;5346438;26;20470;-48
2024/04/09 02:08:10;;;;;;;;;;;13.30;99.20;;;;;;5349593;26;20299;-49
2024/04/09 02:10:36;;;;;;;;;;;13.40;99.20;;;;;;5358515;26;19930;-49
2024/04/09 02:13:03;;;;;;;;;;;13.40;99.20;;;;;;5347091;26;19962;-48
2024/04/09 02:15:29;;;;;;;;;;;13.30;99.20;;;;;;5347097;26;19930;-49
2024/04/09 02:17:55;;;;;;;;;;;13.30;99.00;;;;;;5347450;26;19930;-48
2024/04/09 02:20:21;;;;;;;;;;;13.30;99.00;;;;;;5345168;26;19978;-50
2024/04/09 02:22:47;;;;;;;;;;;13.30;98.80;;;;;;5347583;26;19936;-49
2024/04/09 02:25:13;;;;;;;;;;;13.30;98.80;;;;;;5347866;26;19934;-49
2024/04/09 02:27:38;;;;;;;;;;;13.30;98.90;;;;;;5347087;26;19937;-48
2024/04/09 02:30:09;;;;;;;;;;;13.20;98.50;;;;;;5350969;26;19930;-48
2024/04/09 02:32:35;;;;;;;;;;;13.20;98.40;;;;;;5350309;26;19930;-48
2024/04/09 02:35:01;;;;;;;;;;;13.20;98.20;;;;;;5332514;26;19930;-48
2024/04/09 02:37:28;;;;;;;;;;;13.20;98.20;;;;;;5348541;26;20256;-49
2024/04/09 02:39:53;;;;;;;;;;;13.20;98.30;;;;;;5350552;26;19937;-48
2024/04/09 02:42:20;;;;;;;;;;;13.20;98.30;;;;;;5350527;26;19930;-48
2024/04/09 02:44:46;;;;;;;;;;;13.20;98.40;;;;;;5350717;26;19929;-49
2024/04/09 02:47:11;;;;;;;;;;;13.20;98.20;;;;;;5350960;26;19999;-48
2024/04/09 02:49:37;;;;;;;;;;;13.20;98.00;;;;;;5349809;26;20281;-48
2024/04/09 02:52:03;;;;;;;;;;;13.20;98.00;;;;;;5350810;26;19937;-48
2024/04/09 02:54:28;;;;;;;;;;;13.20;98.10;;;;;;5350166;26;19930;-50
2024/04/09 02:56:54;;;;;;;;;;;13.20;98.30;;;;;;5350932;26;19930;-49
2024/04/09 02:59:20;;;;;;;;;;;13.20;97.80;;;;;;5350409;26;19930;-49
2024/04/09 03:01:46;;;;;;;;;;;13.20;97.80;;;;;;5350340;26;20190;-49
2024/04/09 03:04:11;;;;;;;;;;;13.20;97.60;;;;;;5350135;26;19930;-48
2024/04/09 03:06:37;;;;;;;;;;;13.10;97.40;;;;;;5349815;26;19930;-52
2024/04/09 03:09:03;;;;;;;;;;;13.10;97.30;;;;;;5350534;26;19932;-51
2024/04/09 03:11:28;;;;;;;;;;;13.10;97.40;;;;;;5349421;26;19999;-51
2024/04/09 03:13:54;;;;;;;;;;;13.10;96.90;;;;;;5349971;26;19931;-52
2024/04/09 03:16:21;;;;;;;;;;;13.00;97.00;;;;;;5350108;26;20296;-48
2024/04/09 03:18:47;;;;;;;;;;;13.00;96.90;;;;;;5350212;26;19958;-51
2024/04/09 03:21:12;;;;;;;;;;;13.00;97.20;;;;;;5348718;26;19997;-52
2024/04/09 03:23:38;;;;;;;;;;;13.00;97.50;;;;;;5350041;26;19938;-52
2024/04/09 03:26:06;;;;;;;;;;;13.00;97.50;;;;;;5349813;26;20004;-51
2024/04/09 03:28:32;;;;;;;;;;;13.00;97.20;;;;;;5350003;26;20362;-52
2024/04/09 03:30:58;;;;;;;;;;;13.00;97.30;;;;;;5349738;26;20348;-51
2024/04/09 03:33:24;;;;;;;;;;;13.00;97.50;;;;;;5335451;26;19930;-52
2024/04/09 03:35:53;;;;;;;;;;;13.00;97.50;;;;;;5349822;26;19942;-52
2024/04/09 03:38:19;;;;;;;;;;;13.00;97.60;;;;;;5349517;26;19959;-51
2024/04/09 03:40:57;;;;;;;;;;;13.00;97.70;;;;;;5349662;26;19937;-52
2024/04/09 03:43:23;;;;;;;;;;;13.00;97.80;;;;;;5349439;26;19930;-52
2024/04/09 03:46:07;;;;;;;;;;;13.00;97.80;;;;;;5349565;26;19936;-52
2024/04/09 03:48:33;;;;;;;;;;;13.00;97.90;;;;;;5348993;26;19930;-52
2024/04/09 03:50:58;;;;;;;;;;;13.00;97.90;;;;;;5349876;26;19997;-52
2024/04/09 03:53:24;;;;;;;;;;;13.00;98.00;;;;;;5349227;26;19930;-50
2024/04/09 03:56:07;;;;;;;;;;;13.00;98.10;;;;;;5349509;26;19930;-52
2024/04/09 03:58:34;;;;;;;;;;;13.00;98.20;;;;;;5330271;26;19930;-52
2024/04/09 04:01:02;;;;;;;;;;;13.00;98.10;;;;;;5349396;26;19930;-51
2024/04/09 04:03:28;;;;;;;;;;;13.00;98.20;;;;;;5349412;26;19962;-52
2024/04/09 04:05:54;;;;;;;;;;;13.00;98.30;;;;;;5349010;26;20039;-52
2024/04/09 04:08:24;;;;;;;;;;;13.00;98.20;;;;;;5349503;26;20368;-48
2024/04/09 04:10:57;;;;;;;;;;;13.00;98.20;;;;;;5349486;26;20264;-51
2024/04/09 04:13:24;;;;;;;;;;;12.90;98.10;;;;;;5362671;26;19937;-51
2024/04/09 04:15:57;;;;;;;;;;;12.90;98.00;;;;;;5348375;26;19930;-51
2024/04/09 04:18:22;;;;;;;;;;;12.90;97.90;;;;;;5337302;26;19937;-52
2024/04/09 04:20:54;;;;;;;;;;;12.90;97.80;;;;;;5341590;26;19958;-48
2024/04/09 04:23:20;;;;;;;;;;;12.90;97.90;;;;;;5338922;26;20309;-49
2024/04/09 04:25:54;;;;;;;;;;;12.90;97.90;;;;;;5342540;26;19930;-48
2024/04/09 04:28:20;;;;;;;;;;;12.90;97.90;;;;;;5337285;26;19942;-49
2024/04/09 04:30:45;;;;;;;;;;;12.90;97.90;;;;;;5348858;26;19930;-48
2024/04/09 04:33:11;;;;;;;;;;;12.90;98.00;;;;;;5345143;26;19930;-48
2024/04/09 04:35:36;;;;;;;;;;;12.90;98.00;;;;;;5344063;26;20257;-48
2024/04/09 04:38:03;;;;;;;;;;;12.90;98.00;;;;;;5336722;26;20262;-48
2024/04/09 04:40:28;;;;;;;;;;;12.90;98.10;;;;;;5340710;26;19938;-49
2024/04/09 04:42:54;;;;;;;;;;;12.90;98.10;;;;;;5335557;26;19995;-48
2024/04/09 04:45:20;;;;;;;;;;;12.90;98.20;;;;;;5334669;26;19977;-49
2024/04/09 04:47:46;;;;;;;;;;;12.90;98.10;;;;;;5334866;26;20024;-48
2024/04/09 04:50:11;;;;;;;;;;;12.90;98.20;;;;;;5339062;26;19946;-48
2024/04/09 04:52:37;;;;;;;;;;;12.90;98.10;;;;;;5329334;26;19930;-49
2024/04/09 04:55:02;;;;;;;;;;;12.90;98.20;;;;;;5334265;26;20267;-48
2024/04/09 04:57:28;;;;;;;;;;;12.90;98.20;;;;;;5337287;26;20408;-49
2024/04/09 04:59:55;;;;;;;;;;;12.90;98.20;;;;;;5328957;26;19938;-48
2024/04/09 05:02:20;;;;;;;;;;;12.90;98.20;;;;;;5338836;26;19930;-49
2024/04/09 05:04:53;;;;;;;;;;;12.90;98.20;;;;;;5332803;26;19944;-50
2024/04/09 05:07:21;;;;;;;;;;;12.90;98.20;;;;;;5330936;26;19938;-49
2024/04/09 05:09:48;;;;;;;;;;;12.90;98.30;;;;;;5342446;26;19938;-50
2024/04/09 05:12:13;;;;;;;;;;;12.90;98.30;;;;;;5329367;26;20362;-49
2024/04/09 05:14:39;;;;;;;;;;;12.90;98.40;;;;;;5337809;26;20431;-48
2024/04/09 05:17:04;;;;;;;;;;;12.90;98.50;;;;;;5339069;26;19930;-48
2024/04/09 05:19:32;;;;;;;;;;;12.90;98.30;;;;;;5349495;26;19929;-49
2024/04/09 05:21:58;;;;;;;;;;;12.90;98.20;;;;;;5337107;26;19930;-52
2024/04/09 05:24:24;;;;;;;;;;;12.80;97.90;;;;;;5332909;26;19930;-51
2024/04/09 05:26:49;;;;;;;;;;;12.80;97.70;;;;;;5342360;26;19931;-52
2024/04/09 05:29:15;;;;;;;;;;;12.80;97.30;;;;;;5342602;26;20064;-49
2024/04/09 05:31:41;;;;;;;;;;;12.70;97.40;;;;;;5342203;26;20004;-48
2024/04/09 05:34:07;;;;;;;;;;;12.70;97.10;;;;;;5343539;26;19930;-48
2024/04/09 05:36:33;;;;;;;;;;;12.70;97.10;;;;;;5337281;26;19930;-48
2024/04/09 05:38:58;;;;;;;;;;;12.70;96.70;;;;;;5335268;26;19930;-48
2024/04/09 05:41:24;;;;;;;;;;;12.70;96.80;;;;;;5328618;26;19938;-48
2024/04/09 05:43:49;;;;;;;;;;;12.70;96.90;;;;;;5332978;26;19938;-49
2024/04/09 05:46:15;;;;;;;;;;;12.70;96.90;;;;;;5337901;26;19958;-48
2024/04/09 05:48:40;;;;;;;;;;;12.70;96.90;;;;;;5332947;26;19937;-48
2024/04/09 05:51:06;;;;;;;;;;;12.70;97.10;;;;;;5329581;26;19930;-48
2024/04/09 05:53:31;;;;;;;;;;;12.80;97.00;;;;;;5337659;26;19934;-49
2024/04/09 05:55:57;;;;;;;;;;;12.70;97.00;;;;;;5331214;26;19977;-49
2024/04/09 05:58:22;;;;;;;;;;;12.80;97.20;;;;;;5328670;26;19930;-48
2024/04/09 06:00:51;;;;;;;;;;;12.80;97.20;;;;;;5336954;26;19936;-49
2024/04/09 06:03:17;;;;;;;;;;;12.80;97.20;;;;;;5340221;26;19938;-48
2024/04/09 06:05:42;;;;;;;;;;;12.80;97.30;;;;;;5337671;26;19937;-49
2024/04/09 06:08:08;;;;;;;;;;;12.70;97.10;;;;;;5343666;26;20044;-48
2024/04/09 06:10:33;;;;;;;;;;;12.80;97.20;;;;;;5338871;26;19937;-49
2024/04/09 06:13:00;;;;;;;;;;;12.70;97.00;;;;;;5337552;26;20423;-49
2024/04/09 06:15:25;;;;;;;;;;;12.70;97.10;;;;;;5341760;26;20791;-49
2024/04/09 06:17:51;;;;;;;;;;;12.70;97.10;;;;;;5345194;26;19942;-48
2024/04/09 06:20:16;;;;;;;;;;;12.70;97.10;;;;;;5346319;26;19966;-48
2024/04/09 06:22:42;;;;;;;;;;;12.70;97.20;;;;;;5333941;26;19931;-48
2024/04/09 06:25:08;;;;;;;;;;;12.70;97.30;;;;;;5326334;26;20254;-51
2024/04/09 06:27:33;;;;;;;;;;;12.70;97.30;;;;;;5347342;26;19937;-48
2024/04/09 06:29:59;;;;;;;;;;;12.70;97.30;;;;;;5333607;26;19937;-49
2024/04/09 06:32:24;;;;;;;;;;;12.70;97.30;;;;;;5343693;26;19962;-48
2024/04/09 06:34:50;;;;;;;;;;;12.80;97.30;;;;;;5333207;26;19946;-48
2024/04/09 06:37:16;;;;;;;;;;;12.70;97.40;;;;;;5335692;26;19937;-50
2024/04/09 06:39:42;;;;;;;;;;;12.70;98.10;;;;;;5336905;26;19938;-53
2024/04/09 06:42:07;;;;;;;;;;;12.70;97.40;;;;;;5333625;26;19937;-52
2024/04/09 06:44:33;;;;;;;;;;;12.70;97.30;;;;;;5336162;26;19930;-52
2024/04/09 06:46:58;;;;;;;;;;;12.70;97.40;;;;;;5341411;26;19929;-53
2024/04/09 06:49:24;;;;;;;;;;;12.70;97.20;;;;;;5338279;26;19937;-53
2024/04/09 06:51:50;;;;;;;;;;;12.70;97.20;;;;;;5344226;26;19930;-53
2024/04/09 06:54:15;;;;;;;;;;;12.70;97.20;;;;;;5334921;26;19991;-53
2024/04/09 06:56:41;;;;;;;;;;;12.70;97.30;;;;;;5342184;26;19936;-53
2024/04/09 06:59:06;;;;;;;;;;;12.70;97.40;;;;;;5337713;26;19938;-56
2024/04/09 07:01:31;;;;;;;;;;;12.70;97.40;;;;;;5332784;26;19930;-54
2024/04/09 07:03:57;;;;;;;;;;;12.80;97.60;;;;;;5338859;26;20054;-50
2024/04/09 07:06:23;;;;;;;;;;;12.70;97.50;;;;;;5343621;26;19941;-50
2024/04/09 07:08:51;;;;;;;;;;;12.70;97.50;;;;;;5341554;26;19930;-51
2024/04/09 07:11:16;;;;;;;;;;;12.70;97.50;;;;;;5343901;26;19937;-50
2024/04/09 07:13:42;;;;;;;;;;;12.70;97.40;;;;;;5334304;26;20242;-53
2024/04/09 07:16:08;;;;;;;;;;;12.70;97.40;;;;;;5342818;26;20381;-52
2024/04/09 07:18:34;;;;;;;;;;;12.70;97.60;;;;;;5337994;26;20035;-52
2024/04/09 07:21:00;;;;;;;;;;;12.70;97.20;;;;;;5346912;26;19930;-53
2024/04/09 07:23:26;;;;;;;;;;;12.70;96.90;;;;;;5342490;26;20253;-50
2024/04/09 07:25:51;;;;;;;;;;;12.70;96.80;;;;;;5343689;26;19930;-51
2024/04/09 07:28:17;;;;;;;;;;;12.70;96.90;;;;;;5339105;26;19930;-52
2024/04/09 07:30:43;;;;;;;;;;;12.70;96.80;;;;;;5343024;26;19936;-53
2024/04/09 07:33:08;;;;;;;;;;;12.70;96.70;;;;;;5340132;26;19931;-50
2024/04/09 07:35:35;;;;;;;;;;;12.70;96.60;;;;;;5343424;26;19948;-51
2024/04/09 07:38:00;;;;;;;;;;;12.70;96.50;;;;;;5338106;26;19930;-53
2024/04/09 07:40:26;;;;;;;;;;;12.70;96.30;;;;;;5331058;26;19974;-51
2024/04/09 07:42:51;;;;;;;;;;;12.70;96.30;;;;;;5324315;26;19931;-51
2024/04/09 07:45:17;;;;;;;;;;;12.70;96.30;;;;;;5346254;26;19937;-52
2024/04/09 07:47:42;;;;;;;;;;;12.70;96.00;;;;;;5348619;26;20413;-50
2024/04/09 07:50:11;;;;;;;;;;;12.70;96.00;;;;;;5348283;26;19977;-52
2024/04/09 07:52:39;;;;;;;;;;;12.70;95.70;;;;;;5347763;26;19930;-53
2024/04/09 07:55:07;;;;;;;;;;;12.70;95.60;;;;;;5348920;26;19930;-50
2024/04/09 07:57:36;;;;;;;;;;;12.70;95.60;;;;;;5348012;26;20660;-49
2024/04/09 08:00:06;;;;;;;;;;;12.70;95.40;;;;;;5348917;26;19936;-50
2024/04/09 08:02:32;;;;;;;;;;;12.70;95.50;;;;;;5348604;26;19930;-49
2024/04/09 08:04:57;;;;;;;;;;;12.80;95.50;;;;;;5348960;26;19930;-50
2024/04/09 08:07:23;;;;;;;;;;;12.80;95.70;;;;;;5347968;26;19930;-49
2024/04/09 08:09:48;;;;;;;;;;;12.80;95.70;;;;;;5348997;26;20253;-50
2024/04/09 08:12:14;;;;;;;;;;;12.80;95.20;;;;;;5349445;26;19937;-50
2024/04/09 08:14:39;;;;;;;;;;;12.80;94.90;;;;;;5343035;26;20755;-50
2024/04/09 08:17:04;;;;;;;;;;;12.80;94.90;;;;;;5348477;26;20336;-50
2024/04/09 08:19:30;;;;;;;;;;;12.80;95.10;;;;;;5347839;26;20443;-50
2024/04/09 08:21:56;;;;;;;;;;;12.80;94.70;;;;;;5347471;26;19930;-50
2024/04/09 08:24:22;;;;;;;;;;;12.80;94.30;;;;;;5347130;26;19958;-49
2024/04/09 08:26:47;;;;;;;;;;;12.80;94.50;;;;;;5347199;26;19930;-50
2024/04/09 08:29:16;;;;;;;;;;;12.80;94.40;;;;;;5347699;26;19929;-49
2024/04/09 08:31:44;;;;;;;;;;;12.80;94.20;;;;;;5346870;26;19930;-49
2024/04/09 08:34:10;;;;;;;;;;;12.80;94.40;;;;;;5334880;26;19938;-50
2024/04/09 08:36:36;;;;;;;;;;;12.80;94.20;;;;;;5336662;26;19930;-50
2024/04/09 08:39:03;;;;;;;;;;;12.90;93.90;;;;;;5348886;26;19930;-50
2024/04/09 08:41:29;;;;;;;;;;;12.80;93.80;;;;;;5345188;26;19958;-50
2024/04/09 08:43:56;;;;;;;;;;;12.90;94.20;;;;;;5331884;26;19938;-50
2024/04/09 08:46:22;;;;;;;;;;;12.90;94.20;;;;;;5347956;26;19930;-50
2024/04/09 08:48:48;;;;;;;;;;;12.90;94.20;;;;;;5348814;26;19937;-49
2024/04/09 08:51:13;;;;;;;;;;;12.90;94.10;;;;;;5348596;26;19930;-50
2024/04/09 08:53:39;;;;;;;;;;;12.90;94.20;;;;;;5348027;26;20118;-51
2024/04/09 08:56:05;;;;;;;;;;;12.90;93.70;;;;;;5342526;26;20238;-50
2024/04/09 08:58:30;;;;;;;;;;;12.90;93.70;;;;;;5347537;26;19937;-50
2024/04/09 09:00:56;;;;;;;;;;;12.90;93.80;;;;;;5348225;26;19931;-50
2024/04/09 09:03:21;;;;;;;;;;;12.90;94.40;;;;;;5346409;26;19937;-49
2024/04/09 09:06:00;;;;;;;;;;;13.00;94.40;;;;;;5347611;26;19953;-53
2024/04/09 09:08:26;;;;;;;;;;;13.00;94.40;;;;;;5346807;26;19930;-53
2024/04/09 09:10:54;;;;;;;;;;;13.00;93.30;;;;;;5347635;26;19929;-51
2024/04/09 09:13:20;;;;;;;;;;;13.00;93.00;;;;;;5347673;26;19930;-51
2024/04/09 09:15:53;;;;;;;;;;;13.00;92.80;;;;;;5348726;26;19930;-53
2024/04/09 09:18:22;;;;;;;;;;;13.00;93.20;;;;;;5326684;26;19930;-53
2024/04/09 09:20:56;;;;;;;;;;;13.00;93.10;;;;;;5348039;26;19930;-53
2024/04/09 09:23:22;;;;;;;;;;;13.00;92.90;;;;;;5347416;26;19966;-53
2024/04/09 09:25:51;;;;;;;;;;;13.00;92.90;;;;;;5347964;26;19930;-53
2024/04/09 09:28:19;;;;;;;;;;;13.00;92.80;;;;;;5348372;26;19930;-53
2024/04/09 09:30:45;;;;;;;;;;;13.00;92.80;;;;;;5347131;26;19966;-53
2024/04/09 09:33:29;;;;;;;;;;;13.00;92.80;;;;;;5348381;26;19930;-53
2024/04/09 09:35:55;;;;;;;;;;;13.00;92.70;;;;;;5348093;26;19989;-53
2024/04/09 09:38:21;;;;;;;;;;;13.00;92.90;;;;;;5346187;26;20341;-53
2024/04/09 09:40:51;;;;;;;;;;;13.10;93.10;;;;;;5347231;26;19937;-53
2024/04/09 09:43:17;;;;;;;;;;;13.10;93.10;;;;;;5347725;26;20273;-51
2024/04/09 09:45:47;;;;;;;;;;;13.10;93.10;;;;;;5347229;26;20290;-51
2024/04/09 09:48:15;;;;;;;;;;;13.10;92.90;;;;;;5347578;26;20004;-51
2024/04/09 09:50:42;;;;;;;;;;;13.10;93.30;;;;;;5347138;26;19957;-51
2024/04/09 09:53:08;;;;;;;;;;;13.10;92.60;;;;;;5345660;26;19930;-50
2024/04/09 09:55:34;;;;;;;;;;;13.10;92.40;;;;;;5338292;26;20369;-50
2024/04/09 09:58:03;;;;;;;;;;;13.10;92.60;;;;;;5346908;26;19976;-51
2024/04/09 10:00:29;;;;;;;;;;;13.10;93.00;;;;;;5347132;26;19930;-50
2024/04/09 10:02:54;;;;;;;;;;;13.10;92.70;;;;;;5335883;26;20038;-50
2024/04/09 10:05:20;;;;;;;;;;;13.10;92.70;;;;;;5339583;26;20365;-50
2024/04/09 10:07:48;;;;;;;;;;;13.20;92.90;;;;;;5338605;26;20422;-51
2024/04/09 10:10:24;;;;;;;;;;;13.10;92.70;;;;;;5341025;26;19930;-53
2024/04/09 10:12:51;;;;;;;;;;;13.10;92.90;;;;;;5337213;26;19930;-53
2024/04/09 10:15:24;;;;;;;;;;;13.20;92.50;;;;;;5341585;26;20340;-53
2024/04/09 10:17:53;;;;;;;;;;;13.20;92.80;;;;;;5346503;26;19930;-50
2024/04/09 10:20:31;;;;;;;;;;;13.20;92.70;;;;;;5338697;26;19942;-49
2024/04/09 10:22:57;;;;;;;;;;;13.20;93.00;;;;;;5337823;26;19931;-50
2024/04/09 10:25:24;;;;;;;;;;;13.20;93.50;;;;;;5337655;26;20389;-50
2024/04/09 10:27:59;;;;;;;;;;;13.30;93.70;;;;;;5334741;26;19952;-50
2024/04/09 10:30:26;;;;;;;;;;;13.30;93.50;;;;;;5342897;26;19933;-49
2024/04/09 10:32:55;;;;;;;;;;;13.30;93.10;;;;;;5347052;26;19931;-50
2024/04/09 10:35:22;;;;;;;;;;;13.30;93.60;;;;;;5345235;26;19937;-50
2024/04/09 10:37:48;;;;;;;;;;;13.30;93.80;;;;;;5339254;26;19931;-50
2024/04/09 10:40:13;;;;;;;;;;;13.30;93.50;;;;;;5340398;26;19931;-50
2024/04/09 10:42:39;;;;;;;;;;;13.30;93.30;;;;;;5351607;26;20317;-50
2024/04/09 10:45:06;;;;;;;;;;;13.30;92.40;;;;;;5345491;26;19946;-50
2024/04/09 10:47:32;;;;;;;;;;;13.30;92.50;;;;;;5345329;26;20324;-50
2024/04/09 10:49:57;;;;;;;;;;;13.30;92.50;;;;;;5347040;26;19937;-49
2024/04/09 10:52:23;;;;;;;;;;;13.30;93.30;;;;;;5348346;26;19930;-49
2024/04/09 10:54:48;;;;;;;;;;;13.30;93.00;;;;;;5349087;26;19934;-50
2024/04/09 10:57:14;;;;;;;;;;;13.30;93.20;;;;;;5349372;26;19930;-49
2024/04/09 10:59:39;;;;;;;;;;;13.30;93.20;;;;;;5332463;26;19930;-49
2024/04/09 11:02:06;;;;;;;;;;;13.30;93.10;;;;;;5348991;26;20008;-50
2024/04/09 11:04:35;;;;;;;;;;;13.30;92.80;;;;;;5346769;26;19936;-50
2024/04/09 11:07:01;;;;;;;;;;;13.30;92.90;;;;;;5348746;26;19930;-49
2024/04/09 11:09:26;;;;;;;;;;;13.30;93.00;;;;;;5335699;26;20432;-50
2024/04/09 11:11:52;;;;;;;;;;;13.30;93.50;;;;;;5340133;26;21091;-49
2024/04/09 11:14:18;;;;;;;;;;;13.40;93.20;;;;;;5344472;26;19942;-50
2024/04/09 11:16:47;;;;;;;;;;;13.40;93.30;;;;;;5335404;26;19954;-50
2024/04/09 11:19:18;;;;;;;;;;;13.40;93.30;;;;;;5340380;26;20438;-50
2024/04/09 11:21:44;;;;;;;;;;;13.40;93.30;;;;;;5343325;26;19937;-51
2024/04/09 11:24:09;;;;;;;;;;;13.40;93.30;;;;;;5347341;26;19930;-49
2024/04/09 11:26:35;;;;;;;;;;;13.40;93.30;;;;;;5349022;26;19930;-51
2024/04/09 11:29:00;;;;;;;;;;;13.50;93.60;;;;;;5349880;26;19930;-53
2024/04/09 11:31:26;;;;;;;;;;;13.50;93.40;;;;;;5349191;26;19930;-52
2024/04/09 11:33:51;;;;;;;;;;;13.50;93.40;;;;;;5349103;26;20377;-53
2024/04/09 11:36:17;;;;;;;;;;;13.50;93.10;;;;;;5349133;26;20388;-53
2024/04/09 11:38:42;;;;;;;;;;;13.50;93.10;;;;;;5347288;26;19930;-53
2024/04/09 11:41:08;;;;;;;;;;;13.50;93.00;;;;;;5349240;26;19937;-53
2024/04/09 11:43:34;;;;;;;;;;;13.50;93.10;;;;;;5348937;26;19930;-53
2024/04/09 11:46:00;;;;;;;;;;;13.60;93.10;;;;;;5336745;26;19939;-53
2024/04/09 11:48:25;;;;;;;;;;;13.50;92.80;;;;;;5343771;26;19938;-53
2024/04/09 11:50:51;;;;;;;;;;;13.60;92.70;;;;;;5354139;26;19936;-53
2024/04/09 11:53:17;;;;;;;;;;;13.60;92.00;;;;;;5349153;26;20004;-53
2024/04/09 11:55:42;;;;;;;;;;;13.60;92.30;;;;;;5348779;26;19930;-53
2024/04/09 11:58:08;;;;;;;;;;;13.60;92.30;;;;;;5331757;26;19930;-53
2024/04/09 12:00:34;;;;;;;;;;;13.60;92.40;;;;;;5349033;26;19937;-54
2024/04/09 12:02:59;;;;;;;;;;;13.60;92.10;;;;;;5347688;26;19930;-53
2024/04/09 12:05:25;;;;;;;;;;;13.60;92.10;;;;;;5346657;26;20339;-53
2024/04/09 12:07:50;;;;;;;;;;;13.60;92.10;;;;;;5349059;26;19930;-53
2024/04/09 12:10:16;;;;;;;;;;;13.60;91.90;;;;;;5338057;26;19938;-53
2024/04/09 12:12:41;;;;;;;;;;;13.60;92.30;;;;;;5340761;26;19962;-53
2024/04/09 12:15:10;;;;;;;;;;;13.60;92.20;;;;;;5338947;26;19931;-52
2024/04/09 12:17:36;;;;;;;;;;;13.60;92.00;;;;;;5340622;26;19930;-53
2024/04/09 12:20:04;;;;;;;;;;;13.60;91.70;;;;;;5338201;26;19930;-53
2024/04/09 12:22:30;;;;;;;;;;;13.50;90.90;;;;;;5339392;26;19930;-53
2024/04/09 12:24:59;;;;;;;;;;;13.50;91.70;;;;;;5336057;26;19931;-53
2024/04/09 12:27:24;;;;;;;;;;;13.50;92.40;;;;;;5338174;26;20444;-52
2024/04/09 12:29:50;;;;;;;;;;;13.60;93.00;;;;;;5337444;26;19987;-53
2024/04/09 12:32:15;;;;;;;;;;;13.60;92.80;;;;;;5347413;26;19930;-53
2024/04/09 12:34:42;;;;;;;;;;;13.60;93.10;;;;;;5334458;26;19942;-54
2024/04/09 12:37:07;;;;;;;;;;;13.60;93.10;;;;;;5341963;26;19934;-51
2024/04/09 12:39:34;;;;;;;;;;;13.60;93.50;;;;;;5335515;26;20293;-54
2024/04/09 12:41:59;;;;;;;;;;;13.60;93.30;;;;;;5340853;26;19937;-54
2024/04/09 12:44:25;;;;;;;;;;;13.60;93.40;;;;;;5337938;26;19930;-54
2024/04/09 12:46:51;;;;;;;;;;;13.60;93.30;;;;;;5339471;26;19976;-53
2024/04/09 12:49:21;;;;;;;;;;;13.60;92.80;;;;;;5335462;26;19931;-53
2024/04/09 12:51:46;;;;;;;;;;;13.60;92.80;;;;;;5341253;26;20464;-52
2024/04/09 12:54:13;;;;;;;;;;;13.60;93.10;;;;;;5336998;26;19941;-52
2024/04/09 12:56:38;;;;;;;;;;;13.60;93.50;;;;;;5341668;26;19930;-53
2024/04/09 12:59:05;;;;;;;;;;;13.60;93.20;;;;;;5336700;26;19938;-53
2024/04/09 13:01:31;;;;;;;;;;;13.60;93.60;;;;;;5342863;26;19938;-53
2024/04/09 13:09:26;;;;;;;;;;;13.70;94.00;;;;;;5338192;26;20004;-53
2024/04/09 13:11:51;;;;;;;;;;;13.70;93.50;;;;;;5333680;26;19937;-52
2024/04/09 13:14:17;;;;;;;;;;;13.70;93.40;;;;;;5336124;26;19941;-54
2024/04/09 13:16:42;;;;;;;;;;;13.70;92.70;;;;;;5336729;26;20367;-53
2024/04/09 13:19:08;;;;;;;;;;;13.70;92.20;;;;;;5342267;26;19929;-53
2024/04/09 13:21:34;;;;;;;;;;;13.70;92.20;;;;;;5348021;26;19930;-54
2024/04/09 13:23:59;;;;;;;;;;;13.70;91.80;;;;;;5348047;26;19964;-52
2024/04/09 13:26:25;;;;;;;;;;;13.70;91.50;;;;;;5334574;26;19930;-53
2024/04/09 13:28:50;;;;;;;;;;;13.70;91.60;;;;;;5340367;26;19937;-52
2024/04/09 13:31:16;;;;;;;;;;;13.70;91.30;;;;;;5366233;26;19962;-54
2024/04/09 13:33:41;;;;;;;;;;;13.80;91.90;;;;;;5341055;26;19937;-53
2024/04/09 13:36:07;;;;;;;;;;;13.80;91.90;;;;;;5330260;26;19930;-53
2024/04/09 13:38:32;;;;;;;;;;;13.80;92.40;;;;;;5347268;26;19943;-53
2024/04/09 13:40:58;;;;;;;;;;;13.80;91.40;;;;;;5345409;26;19930;-54
2024/04/09 13:43:25;;;;;;;;;;;13.80;91.00;;;;;;5346672;26;19930;-54
2024/04/09 13:45:50;;;;;;;;;;;13.90;91.10;;;;;;5347905;26;19938;-52
2024/04/09 13:48:16;;;;;;;;;;;13.80;91.10;;;;;;5325818;26;19937;-52
2024/04/09 13:50:41;;;;;;;;;;;13.80;91.00;;;;;;5346457;26;19974;-54
2024/04/09 13:53:07;;;;;;;;;;;13.80;91.00;;;;;;5345774;26;19936;-50
2024/04/09 13:55:33;;;;;;;;;;;13.90;91.30;;;;;;5346144;26;19930;-50
2024/04/09 13:57:59;;;;;;;;;;;13.90;91.30;;;;;;5347586;26;19976;-51
2024/04/09 14:00:26;;;;;;;;;;;13.90;91.40;;;;;;5347092;26;20324;-51
2024/04/09 14:02:51;;;;;;;;;;;13.90;91.50;;;;;;5346669;26;20357;-50
2024/04/09 14:05:18;;;;;;;;;;;13.90;91.90;;;;;;5334708;26;19941;-50
2024/04/09 14:07:45;;;;;;;;;;;13.90;91.60;;;;;;5338399;26;20366;-52
2024/04/09 14:10:11;;;;;;;;;;;13.90;91.90;;;;;;5346632;26;19942;-50
2024/04/09 14:12:36;;;;;;;;;;;13.90;91.70;;;;;;5347150;26;19931;-50
2024/04/09 14:15:05;;;;;;;;;;;13.80;92.30;;;;;;5324890;26;19978;-50
2024/04/09 14:17:34;;;;;;;;;;;13.80;92.60;;;;;;5341866;26;20452;-50